sensor_id;sensor_type;location;lat;lon;timestamp;temperature;humidity
1377;DHT22;682;52.502;13.488;2023-03-01T00:01:42;-0.30;1.00
1377;DHT22;682;52.502;13.488;2023-03-01T00:04:10;-0.30;1.00
1377;DHT22;682;52.502;13.488;2023-03-01T00:06:36;-0.40;1.00
1377;DHT22;682;52.502;13.488;2023-03-01T00:09:05;-0.30;1.00
1377;DHT22;682;52.502;13.488;2023-03-01T00:11:34;-0.30;1.00
1377;DHT22;682;52.502;13.488;2023-03-01T00:14:02;-0.30;1.00
1377;DHT22;682;52.502;13.488;2023-03-01T00:16:34;-0.30;1.00
1377;DHT22;682;52.502;13.488;2023-03-01T00:19:02;-0.20;1.00
1377;DHT22;682;52.502;13.488;2023-03-01T00:21:29;-0.30;1.00
1377;DHT22;682;52.502;13.488;2023-03-01T00:23:56;-0.30;1.00
1377;DHT22;682;52.502;13.488;2023-03-01T00:26:24;-0.30;1.00
1377;DHT22;682;52.502;13.488;2023-03-01T00:28:52;-0.30;1.00
1377;DHT22;682;52.502;13.488;2023-03-01T00:31:22;-0.30;1.00
1377;DHT22;682;52.502;13.488;2023-03-01T00:33:53;-0.30;1.00
1377;DHT22;682;52.502;13.488;2023-03-01T00:36:25;-0.40;1.00
1377;DHT22;682;52.502;13.488;2023-03-01T00:38:53;-0.50;1.00
1377;DHT22;682;52.502;13.488;2023-03-01T00:41:20;-0.50;1.00
1377;DHT22;682;52.502;13.488;2023-03-01T00:43:49;-0.60;1.00
1377;DHT22;682;52.502;13.488;2023-03-01T00:46:22;-0.60;1.00
1377;DHT22;682;52.502;13.488;2023-03-01T00:48:49;-0.60;1.00
1377;DHT22;682;52.502;13.488;2023-03-01T00:51:20;-0.60;1.00
1377;DHT22;682;52.502;13.488;2023-03-01T00:53:52;-0.60;1.00
1377;DHT22;682;52.502;13.488;2023-03-01T00:56:20;-0.50;1.00
1377;DHT22;682;52.502;13.488;2023-03-01T00:58:48;-0.40;1.00
1377;DHT22;682;52.502;13.488;2023-03-01T01:01:19;-0.40;1.00
1377;DHT22;682;52.502;13.488;2023-03-01T01:03:48;-0.30;1.00
1377;DHT22;682;52.502;13.488;2023-03-01T01:06:17;-0.40;1.00
1377;DHT22;682;52.502;13.488;2023-03-01T01:08:45;-0.30;1.00
1377;DHT22;682;52.502;13.488;2023-03-01T01:11:14;-0.40;1.00
1377;DHT22;682;52.502;13.488;2023-03-01T01:13:41;-0.40;1.00
1377;DHT22;682;52.502;13.488;2023-03-01T01:16:08;-0.40;1.00
1377;DHT22;682;52.502;13.488;2023-03-01T01:18:36;-0.50;1.00
1377;DHT22;682;52.502;13.488;2023-03-01T01:21:05;-0.50;1.00
1377;DHT22;682;52.502;13.488;2023-03-01T01:23:32;-0.60;1.00
1377;DHT22;682;52.502;13.488;2023-03-01T01:26:04;-0.70;1.00
1377;DHT22;682;52.502;13.488;2023-03-01T01:28:37;-0.70;1.00
1377;DHT22;682;52.502;13.488;2023-03-01T01:31:06;-0.70;1.00
1377;DHT22;682;52.502;13.488;2023-03-01T01:33:34;-0.60;1.00
1377;DHT22;682;52.502;13.488;2023-03-01T01:36:04;-0.60;1.00
1377;DHT22;682;52.502;13.488;2023-03-01T01:38:32;-0.50;1.00
1377;DHT22;682;52.502;13.488;2023-03-01T01:41:00;-0.60;1.00
1377;DHT22;682;52.502;13.488;2023-03-01T01:43:29;-0.60;1.00
1377;DHT22;682;52.502;13.488;2023-03-01T01:45:59;-0.70;1.00
1377;DHT22;682;52.502;13.488;2023-03-01T01:48:39;-0.80;1.00
1377;DHT22;682;52.502;13.488;2023-03-01T01:51:24;-0.80;1.00
1377;DHT22;682;52.502;13.488;2023-03-01T01:53:58;-0.80;1.00
1377;DHT22;682;52.502;13.488;2023-03-01T01:56:29;-0.90;1.00
1377;DHT22;682;52.502;13.488;2023-03-01T01:58:57;-0.90;1.00
1377;DHT22;682;52.502;13.488;2023-03-01T02:01:27;-0.80;1.00
1377;DHT22;682;52.502;13.488;2023-03-01T02:03:54;-0.90;1.00
1377;DHT22;682;52.502;13.488;2023-03-01T02:06:26;-0.90;1.00
1377;DHT22;682;52.502;13.488;2023-03-01T02:08:59;-1.00;1.00
1377;DHT22;682;52.502;13.488;2023-03-01T02:11:27;-1.00;1.00
1377;DHT22;682;52.502;13.488;2023-03-01T02:13:58;-1.00;1.00
1377;DHT22;682;52.502;13.488;2023-03-01T02:16:29;-1.00;1.00
1377;DHT22;682;52.502;13.488;2023-03-01T02:18:57;-1.00;1.00
1377;DHT22;682;52.502;13.488;2023-03-01T02:21:32;-1.10;1.00
1377;DHT22;682;52.502;13.488;2023-03-01T02:24:10;-1.00;1.00
1377;DHT22;682;52.502;13.488;2023-03-01T02:26:47;-0.90;1.00
1377;DHT22;682;52.502;13.488;2023-03-01T02:29:17;-0.90;1.00
1377;DHT22;682;52.502;13.488;2023-03-01T02:31:44;-0.90;1.00
1377;DHT22;682;52.502;13.488;2023-03-01T02:34:13;-1.00;1.00
1377;DHT22;682;52.502;13.488;2023-03-01T02:36:43;-1.10;1.00
1377;DHT22;682;52.502;13.488;2023-03-01T02:39:17;-1.10;1.00
1377;DHT22;682;52.502;13.488;2023-03-01T02:41:49;-1.10;1.00
1377;DHT22;682;52.502;13.488;2023-03-01T02:44:21;-1.10;1.00
1377;DHT22;682;52.502;13.488;2023-03-01T02:46:52;-1.20;1.00
1377;DHT22;682;52.502;13.488;2023-03-01T02:49:22;-1.20;1.00
1377;DHT22;682;52.502;13.488;2023-03-01T02:52:05;-1.30;1.00
1377;DHT22;682;52.502;13.488;2023-03-01T02:54:38;-1.30;1.00
1377;DHT22;682;52.502;13.488;2023-03-01T02:57:12;-1.30;1.00
1377;DHT22;682;52.502;13.488;2023-03-01T02:59:41;-1.40;1.00
1377;DHT22;682;52.502;13.488;2023-03-01T03:02:19;-1.40;1.00
1377;DHT22;682;52.502;13.488;2023-03-01T03:05:06;-1.40;1.00
1377;DHT22;682;52.502;13.488;2023-03-01T03:07:34;-1.50;1.00
1377;DHT22;682;52.502;13.488;2023-03-01T03:10:03;-1.50;1.00
1377;DHT22;682;52.502;13.488;2023-03-01T03:12:30;-1.50;1.00
1377;DHT22;682;52.502;13.488;2023-03-01T03:14:58;-1.60;1.00
1377;DHT22;682;52.502;13.488;2023-03-01T03:17:25;-1.50;1.00
1377;DHT22;682;52.502;13.488;2023-03-01T03:19:52;-1.60;1.00
1377;DHT22;682;52.502;13.488;2023-03-01T03:22:19;-1.50;1.00
1377;DHT22;682;52.502;13.488;2023-03-01T03:24:47;-1.50;1.00
1377;DHT22;682;52.502;13.488;2023-03-01T03:27:15;-1.50;1.00
1377;DHT22;682;52.502;13.488;2023-03-01T03:29:43;-1.50;1.00
1377;DHT22;682;52.502;13.488;2023-03-01T03:32:11;-1.50;1.00
1377;DHT22;682;52.502;13.488;2023-03-01T03:34:38;-1.50;1.00
1377;DHT22;682;52.502;13.488;2023-03-01T03:37:07;-1.50;1.00
1377;DHT22;682;52.502;13.488;2023-03-01T03:39:55;-1.60;1.00
1377;DHT22;682;52.502;13.488;2023-03-01T03:42:22;-1.70;1.00
1377;DHT22;682;52.502;13.488;2023-03-01T03:44:50;-1.80;1.00
1377;DHT22;682;52.502;13.488;2023-03-01T03:47:19;-1.80;1.00
1377;DHT22;682;52.502;13.488;2023-03-01T03:49:46;-1.90;1.00
1377;DHT22;682;52.502;13.488;2023-03-01T03:52:13;-1.90;1.00
1377;DHT22;682;52.502;13.488;2023-03-01T03:54:40;-1.80;1.00
1377;DHT22;682;52.502;13.488;2023-03-01T03:57:07;-1.80;1.00
1377;DHT22;682;52.502;13.488;2023-03-01T03:59:35;-1.90;1.00
1377;DHT22;682;52.502;13.488;2023-03-01T04:02:03;-2.00;1.00
1377;DHT22;682;52.502;13.488;2023-03-01T04:04:35;-1.90;1.00
1377;DHT22;682;52.502;13.488;2023-03-01T04:07:03;-1.80;1.00
1377;DHT22;682;52.502;13.488;2023-03-01T04:09:30;-1.90;1.00
1377;DHT22;682;52.502;13.488;2023-03-01T04:11:58;-1.80;1.00
1377;DHT22;682;52.502;13.488;2023-03-01T04:14:27;-1.80;1.00
1377;DHT22;682;52.502;13.488;2023-03-01T04:16:54;-1.90;1.00
1377;DHT22;682;52.502;13.488;2023-03-01T04:19:21;-1.80;1.00
1377;DHT22;682;52.502;13.488;2023-03-01T04:21:53;-1.80;1.00
1377;DHT22;682;52.502;13.488;2023-03-01T04:24:21;-1.80;1.00
1377;DHT22;682;52.502;13.488;2023-03-01T04:26:48;-1.90;1.00
1377;DHT22;682;52.502;13.488;2023-03-01T04:29:15;-2.00;1.00
1377;DHT22;682;52.502;13.488;2023-03-01T04:31:42;-1.90;1.00
1377;DHT22;682;52.502;13.488;2023-03-01T04:34:09;-1.90;1.00
1377;DHT22;682;52.502;13.488;2023-03-01T04:36:36;-1.90;1.00
1377;DHT22;682;52.502;13.488;2023-03-01T04:39:04;-1.90;1.00
1377;DHT22;682;52.502;13.488;2023-03-01T04:41:37;-1.90;1.00
1377;DHT22;682;52.502;13.488;2023-03-01T04:44:08;-1.90;1.00
1377;DHT22;682;52.502;13.488;2023-03-01T04:46:36;-1.90;1.00
1377;DHT22;682;52.502;13.488;2023-03-01T04:49:03;-1.90;1.00
1377;DHT22;682;52.502;13.488;2023-03-01T04:51:32;-1.90;1.00
1377;DHT22;682;52.502;13.488;2023-03-01T04:53:59;-1.90;1.00
1377;DHT22;682;52.502;13.488;2023-03-01T04:56:28;-1.90;1.00
1377;DHT22;682;52.502;13.488;2023-03-01T04:58:57;-1.90;1.00
1377;DHT22;682;52.502;13.488;2023-03-01T05:01:28;-1.90;1.00
1377;DHT22;682;52.502;13.488;2023-03-01T05:03:54;-2.00;1.00
1377;DHT22;682;52.502;13.488;2023-03-01T05:06:21;-2.00;1.00
1377;DHT22;682;52.502;13.488;2023-03-01T05:08:48;-2.10;1.00
1377;DHT22;682;52.502;13.488;2023-03-01T05:11:16;-2.10;1.00
1377;DHT22;682;52.502;13.488;2023-03-01T05:13:45;-2.10;1.00
1377;DHT22;682;52.502;13.488;2023-03-01T05:16:12;-2.10;1.00
1377;DHT22;682;52.502;13.488;2023-03-01T05:18:41;-2.10;1.00
1377;DHT22;682;52.502;13.488;2023-03-01T05:21:10;-2.20;1.00
1377;DHT22;682;52.502;13.488;2023-03-01T05:23:41;-2.20;1.00
1377;DHT22;682;52.502;13.488;2023-03-01T05:26:10;-2.30;1.00
1377;DHT22;682;52.502;13.488;2023-03-01T05:28:38;-2.30;1.00
1377;DHT22;682;52.502;13.488;2023-03-01T05:31:07;-2.30;1.00
1377;DHT22;682;52.502;13.488;2023-03-01T05:33:35;-2.40;1.00
1377;DHT22;682;52.502;13.488;2023-03-01T05:36:05;-2.30;1.00
1377;DHT22;682;52.502;13.488;2023-03-01T05:38:33;-2.30;1.00
1377;DHT22;682;52.502;13.488;2023-03-01T05:41:02;-2.20;1.00
1377;DHT22;682;52.502;13.488;2023-03-01T05:43:33;-2.20;1.00
1377;DHT22;682;52.502;13.488;2023-03-01T05:46:00;-2.20;1.00
1377;DHT22;682;52.502;13.488;2023-03-01T05:48:28;-2.20;1.00
1377;DHT22;682;52.502;13.488;2023-03-01T05:51:00;-2.20;1.00
1377;DHT22;682;52.502;13.488;2023-03-01T05:53:30;-2.20;1.00
1377;DHT22;682;52.502;13.488;2023-03-01T05:55:57;-2.20;1.00
1377;DHT22;682;52.502;13.488;2023-03-01T05:58:27;-2.20;1.00
1377;DHT22;682;52.502;13.488;2023-03-01T06:00:54;-2.20;1.00
1377;DHT22;682;52.502;13.488;2023-03-01T06:03:21;-2.20;1.00
1377;DHT22;682;52.502;13.488;2023-03-01T06:05:55;-2.10;1.00
1377;DHT22;682;52.502;13.488;2023-03-01T06:08:22;-2.20;1.00
1377;DHT22;682;52.502;13.488;2023-03-01T06:10:52;-2.10;1.00
1377;DHT22;682;52.502;13.488;2023-03-01T06:13:19;-2.20;1.00
1377;DHT22;682;52.502;13.488;2023-03-01T06:15:47;-2.10;1.00
1377;DHT22;682;52.502;13.488;2023-03-01T06:18:15;-2.00;1.00
1377;DHT22;682;52.502;13.488;2023-03-01T06:20:42;-2.10;1.00
1377;DHT22;682;52.502;13.488;2023-03-01T06:23:11;-1.90;1.00
1377;DHT22;682;52.502;13.488;2023-03-01T06:25:38;-1.80;1.00
1377;DHT22;682;52.502;13.488;2023-03-01T06:28:05;-1.70;1.00
1377;DHT22;682;52.502;13.488;2023-03-01T06:30:32;-1.60;1.00
1377;DHT22;682;52.502;13.488;2023-03-01T06:33:02;-1.50;1.00
1377;DHT22;682;52.502;13.488;2023-03-01T06:35:31;-1.40;1.00
1377;DHT22;682;52.502;13.488;2023-03-01T06:37:59;-1.30;1.00
1377;DHT22;682;52.502;13.488;2023-03-01T06:40:29;-1.20;1.00
1377;DHT22;682;52.502;13.488;2023-03-01T06:42:57;-1.10;1.00
1377;DHT22;682;52.502;13.488;2023-03-01T06:45:27;-1.00;1.00
1377;DHT22;682;52.502;13.488;2023-03-01T06:48:01;-0.90;1.00
1377;DHT22;682;52.502;13.488;2023-03-01T06:50:29;-0.80;1.00
1377;DHT22;682;52.502;13.488;2023-03-01T06:52:57;-0.70;1.00
1377;DHT22;682;52.502;13.488;2023-03-01T06:55:25;-0.60;1.00
1377;DHT22;682;52.502;13.488;2023-03-01T06:57:56;-0.50;1.00
1377;DHT22;682;52.502;13.488;2023-03-01T07:00:24;-0.40;1.00
1377;DHT22;682;52.502;13.488;2023-03-01T07:02:52;-0.40;1.00
1377;DHT22;682;52.502;13.488;2023-03-01T07:05:19;-0.50;1.00
1377;DHT22;682;52.502;13.488;2023-03-01T07:07:46;-0.40;1.00
1377;DHT22;682;52.502;13.488;2023-03-01T07:10:17;-0.40;1.00
1377;DHT22;682;52.502;13.488;2023-03-01T07:12:44;-0.30;1.00
1377;DHT22;682;52.502;13.488;2023-03-01T07:15:13;-0.30;1.00
1377;DHT22;682;52.502;13.488;2023-03-01T07:17:43;-0.20;1.00
1377;DHT22;682;52.502;13.488;2023-03-01T07:20:20;0.00;1.00
1377;DHT22;682;52.502;13.488;2023-03-01T07:22:50;0.10;1.00
1377;DHT22;682;52.502;13.488;2023-03-01T07:25:18;0.10;1.00
1377;DHT22;682;52.502;13.488;2023-03-01T07:27:49;0.30;1.00
1377;DHT22;682;52.502;13.488;2023-03-01T07:30:19;0.40;1.00
1377;DHT22;682;52.502;13.488;2023-03-01T07:32:47;0.50;1.00
1377;DHT22;682;52.502;13.488;2023-03-01T07:35:16;0.60;1.00
1377;DHT22;682;52.502;13.488;2023-03-01T07:37:44;0.80;1.00
1377;DHT22;682;52.502;13.488;2023-03-01T07:40:12;0.90;1.00
1377;DHT22;682;52.502;13.488;2023-03-01T07:42:42;1.00;1.00
1377;DHT22;682;52.502;13.488;2023-03-01T07:45:10;1.20;1.00
1377;DHT22;682;52.502;13.488;2023-03-01T07:47:40;1.40;1.00
1377;DHT22;682;52.502;13.488;2023-03-01T07:50:08;1.40;1.00
1377;DHT22;682;52.502;13.488;2023-03-01T07:52:40;1.60;1.00
1377;DHT22;682;52.502;13.488;2023-03-01T07:55:07;1.70;1.00
1377;DHT22;682;52.502;13.488;2023-03-01T07:57:35;1.80;1.00
1377;DHT22;682;52.502;13.488;2023-03-01T08:00:05;1.90;1.00
1377;DHT22;682;52.502;13.488;2023-03-01T08:02:32;2.00;1.00
1377;DHT22;682;52.502;13.488;2023-03-01T08:05:00;2.20;1.00
1377;DHT22;682;52.502;13.488;2023-03-01T08:07:29;2.50;1.00
1377;DHT22;682;52.502;13.488;2023-03-01T08:09:56;2.60;1.00
1377;DHT22;682;52.502;13.488;2023-03-01T08:12:24;2.80;1.00
1377;DHT22;682;52.502;13.488;2023-03-01T08:14:53;2.90;1.00
1377;DHT22;682;52.502;13.488;2023-03-01T08:17:20;3.10;1.00
1377;DHT22;682;52.502;13.488;2023-03-01T08:19:47;3.30;1.00
1377;DHT22;682;52.502;13.488;2023-03-01T08:22:16;3.40;1.00
1377;DHT22;682;52.502;13.488;2023-03-01T08:24:46;3.60;1.00
1377;DHT22;682;52.502;13.488;2023-03-01T08:27:15;3.70;1.00
1377;DHT22;682;52.502;13.488;2023-03-01T08:29:42;3.90;1.00
1377;DHT22;682;52.502;13.488;2023-03-01T08:32:12;4.10;1.00
1377;DHT22;682;52.502;13.488;2023-03-01T08:34:39;4.20;1.00
1377;DHT22;682;52.502;13.488;2023-03-01T08:37:08;4.30;1.00
1377;DHT22;682;52.502;13.488;2023-03-01T08:39:36;4.40;1.00
1377;DHT22;682;52.502;13.488;2023-03-01T08:42:06;4.60;1.00
1377;DHT22;682;52.502;13.488;2023-03-01T08:44:33;4.80;1.00
1377;DHT22;682;52.502;13.488;2023-03-01T08:47:02;4.90;1.00
1377;DHT22;682;52.502;13.488;2023-03-01T08:49:30;5.10;1.00
1377;DHT22;682;52.502;13.488;2023-03-01T08:51:59;5.40;1.00
1377;DHT22;682;52.502;13.488;2023-03-01T08:54:27;5.90;1.00
1377;DHT22;682;52.502;13.488;2023-03-01T08:56:57;7.00;1.00
1377;DHT22;682;52.502;13.488;2023-03-01T08:59:27;7.90;1.00
1377;DHT22;682;52.502;13.488;2023-03-01T09:01:56;9.00;1.00
1377;DHT22;682;52.502;13.488;2023-03-01T09:04:24;10.40;1.00
1377;DHT22;682;52.502;13.488;2023-03-01T09:06:51;11.90;1.00
1377;DHT22;682;52.502;13.488;2023-03-01T09:09:20;13.30;1.00
1377;DHT22;682;52.502;13.488;2023-03-01T09:11:47;14.10;1.00
1377;DHT22;682;52.502;13.488;2023-03-01T09:14:17;15.20;1.00
1377;DHT22;682;52.502;13.488;2023-03-01T09:16:47;15.80;1.00
1377;DHT22;682;52.502;13.488;2023-03-01T09:19:16;16.30;1.00
1377;DHT22;682;52.502;13.488;2023-03-01T09:21:46;17.00;1.00
1377;DHT22;682;52.502;13.488;2023-03-01T09:24:20;17.30;1.00
1377;DHT22;682;52.502;13.488;2023-03-01T09:26:49;17.50;1.00
1377;DHT22;682;52.502;13.488;2023-03-01T09:29:18;17.80;1.00
1377;DHT22;682;52.502;13.488;2023-03-01T09:31:45;18.00;1.00
1377;DHT22;682;52.502;13.488;2023-03-01T09:34:12;18.40;1.00
1377;DHT22;682;52.502;13.488;2023-03-01T09:36:42;18.40;1.00
1377;DHT22;682;52.502;13.488;2023-03-01T09:39:10;18.60;1.00
1377;DHT22;682;52.502;13.488;2023-03-01T09:41:45;18.70;1.00
1377;DHT22;682;52.502;13.488;2023-03-01T09:44:23;18.60;1.00
1377;DHT22;682;52.502;13.488;2023-03-01T09:46:55;18.50;1.00
1377;DHT22;682;52.502;13.488;2023-03-01T09:49:25;18.20;1.00
1377;DHT22;682;52.502;13.488;2023-03-01T09:51:58;18.90;1.00
1377;DHT22;682;52.502;13.488;2023-03-01T09:54:27;19.20;1.00
1377;DHT22;682;52.502;13.488;2023-03-01T09:57:06;19.20;1.00
1377;DHT22;682;52.502;13.488;2023-03-01T09:59:50;18.20;1.00
1377;DHT22;682;52.502;13.488;2023-03-01T10:02:24;17.90;1.00
1377;DHT22;682;52.502;13.488;2023-03-01T10:04:55;18.10;1.00
1377;DHT22;682;52.502;13.488;2023-03-01T10:07:32;18.40;1.00
1377;DHT22;682;52.502;13.488;2023-03-01T10:10:05;18.50;1.00
1377;DHT22;682;52.502;13.488;2023-03-01T10:12:35;18.40;1.00
1377;DHT22;682;52.502;13.488;2023-03-01T10:15:09;18.20;1.00
1377;DHT22;682;52.502;13.488;2023-03-01T10:17:46;18.20;1.00
1377;DHT22;682;52.502;13.488;2023-03-01T10:20:22;18.30;1.00
1377;DHT22;682;52.502;13.488;2023-03-01T10:22:50;17.60;1.00
1377;DHT22;682;52.502;13.488;2023-03-01T10:25:29;17.10;1.00
1377;DHT22;682;52.502;13.488;2023-03-01T10:28:02;17.40;1.00
1377;DHT22;682;52.502;13.488;2023-03-01T10:30:36;17.10;1.00
1377;DHT22;682;52.502;13.488;2023-03-01T10:33:17;17.40;1.00
1377;DHT22;682;52.502;13.488;2023-03-01T10:35:44;18.30;1.00
1377;DHT22;682;52.502;13.488;2023-03-01T10:38:12;19.50;1.00
1377;DHT22;682;52.502;13.488;2023-03-01T10:40:50;20.50;1.00
1377;DHT22;682;52.502;13.488;2023-03-01T10:43:19;19.70;1.00
1377;DHT22;682;52.502;13.488;2023-03-01T10:45:51;19.40;1.00
1377;DHT22;682;52.502;13.488;2023-03-01T10:48:20;19.20;1.00
1377;DHT22;682;52.502;13.488;2023-03-01T10:51:04;19.00;1.00
1377;DHT22;682;52.502;13.488;2023-03-01T10:53:33;18.50;1.00
1377;DHT22;682;52.502;13.488;2023-03-01T10:56:03;18.20;1.00
1377;DHT22;682;52.502;13.488;2023-03-01T10:58:31;18.20;1.00
1377;DHT22;682;52.502;13.488;2023-03-01T11:01:02;18.20;1.00
1377;DHT22;682;52.502;13.488;2023-03-01T11:03:32;17.90;1.00
1377;DHT22;682;52.502;13.488;2023-03-01T11:06:05;18.60;1.00
1377;DHT22;682;52.502;13.488;2023-03-01T11:08:39;19.40;1.00
1377;DHT22;682;52.502;13.488;2023-03-01T11:11:18;20.80;1.00
1377;DHT22;682;52.502;13.488;2023-03-01T11:14:05;21.40;1.00
1377;DHT22;682;52.502;13.488;2023-03-01T11:16:39;22.20;1.00
1377;DHT22;682;52.502;13.488;2023-03-01T11:19:19;22.30;1.00
1377;DHT22;682;52.502;13.488;2023-03-01T11:21:56;22.10;1.00
1377;DHT22;682;52.502;13.488;2023-03-01T11:24:30;20.90;1.00
1377;DHT22;682;52.502;13.488;2023-03-01T11:27:03;20.30;1.00
1377;DHT22;682;52.502;13.488;2023-03-01T11:29:33;20.50;1.00
1377;DHT22;682;52.502;13.488;2023-03-01T11:32:07;20.80;1.00
1377;DHT22;682;52.502;13.488;2023-03-01T11:34:40;22.00;1.00
1377;DHT22;682;52.502;13.488;2023-03-01T11:37:16;22.80;1.00
1377;DHT22;682;52.502;13.488;2023-03-01T11:39:55;23.70;1.00
1377;DHT22;682;52.502;13.488;2023-03-01T11:42:30;24.90;1.00
1377;DHT22;682;52.502;13.488;2023-03-01T11:45:08;26.00;1.00
1377;DHT22;682;52.502;13.488;2023-03-01T11:47:55;26.40;1.00
1377;DHT22;682;52.502;13.488;2023-03-01T11:50:30;26.60;1.00
1377;DHT22;682;52.502;13.488;2023-03-01T11:53:13;26.30;1.00
1377;DHT22;682;52.502;13.488;2023-03-01T11:55:58;26.20;1.00
1377;DHT22;682;52.502;13.488;2023-03-01T11:58:45;25.90;1.00
1377;DHT22;682;52.502;13.488;2023-03-01T12:01:42;25.20;1.00
1377;DHT22;682;52.502;13.488;2023-03-01T12:04:41;25.30;1.00
1377;DHT22;682;52.502;13.488;2023-03-01T12:07:20;25.60;1.00
1377;DHT22;682;52.502;13.488;2023-03-01T12:10:08;26.40;1.00
1377;DHT22;682;52.502;13.488;2023-03-01T12:12:53;26.50;1.00
1377;DHT22;682;52.502;13.488;2023-03-01T12:15:45;27.00;1.00
1377;DHT22;682;52.502;13.488;2023-03-01T12:18:36;27.50;1.00
1377;DHT22;682;52.502;13.488;2023-03-01T12:21:21;27.20;1.00
1377;DHT22;682;52.502;13.488;2023-03-01T12:24:24;26.10;1.00
1377;DHT22;682;52.502;13.488;2023-03-01T12:27:09;24.80;1.00
1377;DHT22;682;52.502;13.488;2023-03-01T12:29:42;24.10;1.00
1377;DHT22;682;52.502;13.488;2023-03-01T12:32:43;23.20;1.00
1377;DHT22;682;52.502;13.488;2023-03-01T12:35:28;22.20;1.00
1377;DHT22;682;52.502;13.488;2023-03-01T12:38:10;22.70;1.00
1377;DHT22;682;52.502;13.488;2023-03-01T12:41:01;23.60;1.00
1377;DHT22;682;52.502;13.488;2023-03-01T12:43:47;24.90;1.00
1377;DHT22;682;52.502;13.488;2023-03-01T12:46:32;25.60;1.00
1377;DHT22;682;52.502;13.488;2023-03-01T12:49:09;25.30;1.00
1377;DHT22;682;52.502;13.488;2023-03-01T12:51:40;24.70;1.00
1377;DHT22;682;52.502;13.488;2023-03-01T12:54:20;23.80;1.00
1377;DHT22;682;52.502;13.488;2023-03-01T12:56:49;23.00;1.00
1377;DHT22;682;52.502;13.488;2023-03-01T12:59:22;22.50;1.00
1377;DHT22;682;52.502;13.488;2023-03-01T13:01:55;21.60;1.00
1377;DHT22;682;52.502;13.488;2023-03-01T13:04:50;20.50;1.00
1377;DHT22;682;52.502;13.488;2023-03-01T13:07:29;19.90;1.00
1377;DHT22;682;52.502;13.488;2023-03-01T13:10:11;20.00;1.00
1377;DHT22;682;52.502;13.488;2023-03-01T13:12:51;19.60;1.00
1377;DHT22;682;52.502;13.488;2023-03-01T13:15:27;19.40;1.00
1377;DHT22;682;52.502;13.488;2023-03-01T13:17:58;19.30;1.00
1377;DHT22;682;52.502;13.488;2023-03-01T13:20:30;19.00;1.00
1377;DHT22;682;52.502;13.488;2023-03-01T13:23:07;18.60;1.00
1377;DHT22;682;52.502;13.488;2023-03-01T13:26:06;18.60;1.00
1377;DHT22;682;52.502;13.488;2023-03-01T13:28:55;18.40;1.00
1377;DHT22;682;52.502;13.488;2023-03-01T13:32:00;18.20;1.00
1377;DHT22;682;52.502;13.488;2023-03-01T13:35:02;18.60;1.00
1377;DHT22;682;52.502;13.488;2023-03-01T13:37:33;18.40;1.00
1377;DHT22;682;52.502;13.488;2023-03-01T13:43:30;18.10;1.00
1377;DHT22;682;52.502;13.488;2023-03-01T13:46:00;17.50;1.00
1377;DHT22;682;52.502;13.488;2023-03-01T13:48:31;16.30;1.00
1377;DHT22;682;52.502;13.488;2023-03-01T13:51:07;15.20;1.00
1377;DHT22;682;52.502;13.488;2023-03-01T13:53:37;14.10;1.00
1377;DHT22;682;52.502;13.488;2023-03-01T13:56:09;13.40;1.00
1377;DHT22;682;52.502;13.488;2023-03-01T13:58:50;12.80;1.00
1377;DHT22;682;52.502;13.488;2023-03-01T14:01:28;12.30;1.00
1377;DHT22;682;52.502;13.488;2023-03-01T14:03:55;12.00;1.00
1377;DHT22;682;52.502;13.488;2023-03-01T14:06:26;11.70;1.00
1377;DHT22;682;52.502;13.488;2023-03-01T14:09:03;11.50;1.00
1377;DHT22;682;52.502;13.488;2023-03-01T14:12:02;11.30;1.00
1377;DHT22;682;52.502;13.488;2023-03-01T14:14:54;11.20;1.00
1377;DHT22;682;52.502;13.488;2023-03-01T14:17:42;11.20;1.00
1377;DHT22;682;52.502;13.488;2023-03-01T14:20:14;11.20;1.00
1377;DHT22;682;52.502;13.488;2023-03-01T14:22:50;11.10;1.00
1377;DHT22;682;52.502;13.488;2023-03-01T14:25:26;11.00;1.00
1377;DHT22;682;52.502;13.488;2023-03-01T14:27:59;10.90;1.00
1377;DHT22;682;52.502;13.488;2023-03-01T14:30:34;10.90;1.00
1377;DHT22;682;52.502;13.488;2023-03-01T14:33:04;10.80;1.00
1377;DHT22;682;52.502;13.488;2023-03-01T14:35:39;10.70;1.00
1377;DHT22;682;52.502;13.488;2023-03-01T14:38:20;10.60;1.00
1377;DHT22;682;52.502;13.488;2023-03-01T14:40:51;10.50;1.00
1377;DHT22;682;52.502;13.488;2023-03-01T14:43:23;10.30;1.00
1377;DHT22;682;52.502;13.488;2023-03-01T14:45:58;10.30;1.00
1377;DHT22;682;52.502;13.488;2023-03-01T14:48:27;10.20;1.00
1377;DHT22;682;52.502;13.488;2023-03-01T14:50:55;10.20;1.00
1377;DHT22;682;52.502;13.488;2023-03-01T14:53:25;10.10;1.00
1377;DHT22;682;52.502;13.488;2023-03-01T14:55:54;10.10;1.00
1377;DHT22;682;52.502;13.488;2023-03-01T14:58:23;10.00;1.00
1377;DHT22;682;52.502;13.488;2023-03-01T15:00:53;9.90;1.00
1377;DHT22;682;52.502;13.488;2023-03-01T15:03:26;9.90;1.00
1377;DHT22;682;52.502;13.488;2023-03-01T15:05:54;9.90;1.00
1377;DHT22;682;52.502;13.488;2023-03-01T15:08:24;9.80;1.00
1377;DHT22;682;52.502;13.488;2023-03-01T15:11:04;9.80;1.00
1377;DHT22;682;52.502;13.488;2023-03-01T15:13:33;9.80;1.00
1377;DHT22;682;52.502;13.488;2023-03-01T15:16:17;9.80;1.00
1377;DHT22;682;52.502;13.488;2023-03-01T15:18:47;9.70;1.00
1377;DHT22;682;52.502;13.488;2023-03-01T15:21:17;9.70;1.00
1377;DHT22;682;52.502;13.488;2023-03-01T15:23:49;9.70;1.00
1377;DHT22;682;52.502;13.488;2023-03-01T15:26:29;9.70;1.00
1377;DHT22;682;52.502;13.488;2023-03-01T15:28:59;9.60;1.00
1377;DHT22;682;52.502;13.488;2023-03-01T15:31:32;9.60;1.00
1377;DHT22;682;52.502;13.488;2023-03-01T15:34:10;9.60;1.00
1377;DHT22;682;52.502;13.488;2023-03-01T15:36:46;9.50;1.00
1377;DHT22;682;52.502;13.488;2023-03-01T15:39:30;9.50;1.00
1377;DHT22;682;52.502;13.488;2023-03-01T15:41:59;9.50;1.00
1377;DHT22;682;52.502;13.488;2023-03-01T15:44:28;9.40;1.00
1377;DHT22;682;52.502;13.488;2023-03-01T15:46:58;9.30;1.00
1377;DHT22;682;52.502;13.488;2023-03-01T15:49:34;9.20;1.00
1377;DHT22;682;52.502;13.488;2023-03-01T15:52:02;9.20;1.00
1377;DHT22;682;52.502;13.488;2023-03-01T15:54:32;9.10;1.00
1377;DHT22;682;52.502;13.488;2023-03-01T15:56:59;9.00;1.00
1377;DHT22;682;52.502;13.488;2023-03-01T15:59:26;9.00;1.00
1377;DHT22;682;52.502;13.488;2023-03-01T16:01:53;9.00;1.00
1377;DHT22;682;52.502;13.488;2023-03-01T16:04:22;8.90;1.00
1377;DHT22;682;52.502;13.488;2023-03-01T16:06:50;8.90;1.00
1377;DHT22;682;52.502;13.488;2023-03-01T16:09:20;8.80;1.00
1377;DHT22;682;52.502;13.488;2023-03-01T16:11:48;8.70;1.00
1377;DHT22;682;52.502;13.488;2023-03-01T16:14:15;8.60;1.00
1377;DHT22;682;52.502;13.488;2023-03-01T16:16:43;8.60;1.00
1377;DHT22;682;52.502;13.488;2023-03-01T16:19:14;8.60;1.00
1377;DHT22;682;52.502;13.488;2023-03-01T16:21:43;8.50;1.00
1377;DHT22;682;52.502;13.488;2023-03-01T16:24:12;8.40;1.00
1377;DHT22;682;52.502;13.488;2023-03-01T16:26:39;8.30;1.00
1377;DHT22;682;52.502;13.488;2023-03-01T16:29:07;8.30;1.00
1377;DHT22;682;52.502;13.488;2023-03-01T16:31:35;8.30;1.00
1377;DHT22;682;52.502;13.488;2023-03-01T16:34:04;8.20;1.00
1377;DHT22;682;52.502;13.488;2023-03-01T16:36:31;8.10;1.00
1377;DHT22;682;52.502;13.488;2023-03-01T16:39:00;8.10;1.00
1377;DHT22;682;52.502;13.488;2023-03-01T16:41:29;8.10;1.00
1377;DHT22;682;52.502;13.488;2023-03-01T16:43:56;8.00;1.00
1377;DHT22;682;52.502;13.488;2023-03-01T16:46:27;7.90;1.00
1377;DHT22;682;52.502;13.488;2023-03-01T16:48:55;7.90;1.00
1377;DHT22;682;52.502;13.488;2023-03-01T16:51:23;7.90;1.00
1377;DHT22;682;52.502;13.488;2023-03-01T16:53:51;7.80;1.00
1377;DHT22;682;52.502;13.488;2023-03-01T16:56:19;7.70;1.00